sensor_id;sensor_type;location;lat;lon;timestamp;pressure;altitude;pressure_sealevel;temperature;humidity
11345;BME280;5727;42.600;23.028;2022-10-23T00:00:15;94206.00;;;11.25;100.00
11345;BME280;5727;42.600;23.028;2022-10-23T00:02:43;94198.91;;;11.25;100.00
11345;BME280;5727;42.600;23.028;2022-10-23T00:05:10;94188.09;;;11.27;100.00
11345;BME280;5727;42.600;23.028;2022-10-23T00:07:37;94200.88;;;11.28;100.00
11345;BME280;5727;42.600;23.028;2022-10-23T00:10:04;94211.69;;;11.27;100.00
11345;BME280;5727;42.600;23.028;2022-10-23T00:12:31;94222.19;;;11.27;100.00
11345;BME280;5727;42.600;23.028;2022-10-23T00:14:58;94215.84;;;11.28;100.00
11345;BME280;5727;42.600;23.028;2022-10-23T00:17:25;94220.22;;;11.24;100.00
11345;BME280;5727;42.600;23.028;2022-10-23T00:19:53;94208.16;;;11.23;100.00
11345;BME280;5727;42.600;23.028;2022-10-23T00:22:20;94206.72;;;11.04;100.00
11345;BME280;5727;42.600;23.028;2022-10-23T00:24:46;94212.91;;;10.91;100.00
11345;BME280;5727;42.600;23.028;2022-10-23T00:27:13;94212.06;;;10.70;100.00
11345;BME280;5727;42.600;23.028;2022-10-23T00:29:40;94207.75;;;10.74;100.00
11345;BME280;5727;42.600;23.028;2022-10-23T00:32:06;94226.69;;;10.80;100.00
11345;BME280;5727;42.600;23.028;2022-10-23T00:34:33;94235.50;;;10.75;100.00
11345;BME280;5727;42.600;23.028;2022-10-23T00:37:01;94223.13;;;10.84;100.00
11345;BME280;5727;42.600;23.028;2022-10-23T00:39:28;94212.91;;;10.91;100.00
11345;BME280;5727;42.600;23.028;2022-10-23T00:41:55;94227.13;;;10.90;100.00
11345;BME280;5727;42.600;23.028;2022-10-23T00:47:26;94226.78;;;11.00;100.00
11345;BME280;5727;42.600;23.028;2022-10-23T00:49:52;94240.34;;;11.02;100.00
11345;BME280;5727;42.600;23.028;2022-10-23T00:52:21;94247.13;;;11.03;100.00
11345;BME280;5727;42.600;23.028;2022-10-23T00:54:47;94245.88;;;11.10;100.00
11345;BME280;5727;42.600;23.028;2022-10-23T00:57:14;94229.50;;;11.13;100.00
11345;BME280;5727;42.600;23.028;2022-10-23T00:59:41;94236.63;;;11.12;100.00
11345;BME280;5727;42.600;23.028;2022-10-23T01:02:08;94238.47;;;11.12;100.00
11345;BME280;5727;42.600;23.028;2022-10-23T01:04:36;94235.84;;;11.12;100.00
11345;BME280;5727;42.600;23.028;2022-10-23T01:07:10;94244.78;;;11.11;100.00
11345;BME280;5727;42.600;23.028;2022-10-23T01:09:45;94253.56;;;11.15;100.00
11345;BME280;5727;42.600;23.028;2022-10-23T01:12:18;94258.31;;;11.21;100.00
11345;BME280;5727;42.600;23.028;2022-10-23T01:15:00;94266.84;;;11.10;100.00
11345;BME280;5727;42.600;23.028;2022-10-23T01:17:34;94254.13;;;11.20;100.00
11345;BME280;5727;42.600;23.028;2022-10-23T01:20:25;94262.00;;;11.20;100.00
11345;BME280;5727;42.600;23.028;2022-10-23T01:26:20;94255.81;;;11.33;100.00
11345;BME280;5727;42.600;23.028;2022-10-23T01:28:55;94252.53;;;11.36;100.00
11345;BME280;5727;42.600;23.028;2022-10-23T01:31:27;94259.47;;;11.41;100.00
11345;BME280;5727;42.600;23.028;2022-10-23T01:33:59;94251.72;;;11.44;100.00
11345;BME280;5727;42.600;23.028;2022-10-23T01:36:31;94248.78;;;11.46;100.00
11345;BME280;5727;42.600;23.028;2022-10-23T01:39:02;94249.03;;;11.53;100.00
11345;BME280;5727;42.600;23.028;2022-10-23T01:41:32;94245.34;;;11.54;100.00
11345;BME280;5727;42.600;23.028;2022-10-23T01:44:08;94251.66;;;11.53;100.00
11345;BME280;5727;42.600;23.028;2022-10-23T01:46:38;94254.75;;;11.55;100.00
11345;BME280;5727;42.600;23.028;2022-10-23T01:49:08;94241.91;;;11.62;100.00
11345;BME280;5727;42.600;23.028;2022-10-23T01:51:37;94245.91;;;11.68;100.00
11345;BME280;5727;42.600;23.028;2022-10-23T01:54:09;94238.53;;;11.53;100.00
11345;BME280;5727;42.600;23.028;2022-10-23T01:56:40;94236.06;;;11.56;100.00
11345;BME280;5727;42.600;23.028;2022-10-23T01:59:13;94226.28;;;11.45;100.00
11345;BME280;5727;42.600;23.028;2022-10-23T02:01:45;94231.53;;;11.07;100.00
11345;BME280;5727;42.600;23.028;2022-10-23T02:04:17;94232.06;;;10.83;100.00
11345;BME280;5727;42.600;23.028;2022-10-23T02:06:46;94240.16;;;10.70;100.00
11345;BME280;5727;42.600;23.028;2022-10-23T02:09:13;94242.25;;;10.85;100.00
11345;BME280;5727;42.600;23.028;2022-10-23T02:11:47;94247.75;;;11.00;100.00
11345;BME280;5727;42.600;23.028;2022-10-23T02:14:25;94244.53;;;10.95;100.00
11345;BME280;5727;42.600;23.028;2022-10-23T02:16:56;94250.34;;;11.09;100.00
11345;BME280;5727;42.600;23.028;2022-10-23T02:19:30;94253.69;;;11.18;100.00
11345;BME280;5727;42.600;23.028;2022-10-23T02:22:03;94259.09;;;11.22;100.00
11345;BME280;5727;42.600;23.028;2022-10-23T02:24:38;94259.63;;;11.36;100.00
11345;BME280;5727;42.600;23.028;2022-10-23T02:27:10;94260.38;;;11.45;100.00
11345;BME280;5727;42.600;23.028;2022-10-23T02:29:43;94260.63;;;11.52;100.00
11345;BME280;5727;42.600;23.028;2022-10-23T02:32:13;94262.81;;;11.50;100.00
11345;BME280;5727;42.600;23.028;2022-10-23T02:34:40;94258.28;;;11.59;100.00
11345;BME280;5727;42.600;23.028;2022-10-23T02:37:07;94255.06;;;11.53;100.00
11345;BME280;5727;42.600;23.028;2022-10-23T02:39:34;94251.66;;;11.53;100.00
11345;BME280;5727;42.600;23.028;2022-10-23T02:42:08;94260.31;;;11.53;100.00
11345;BME280;5727;42.600;23.028;2022-10-23T02:44:48;94251.63;;;11.61;100.00
11345;BME280;5727;42.600;23.028;2022-10-23T02:47:29;94253.59;;;11.64;100.00
11345;BME280;5727;42.600;23.028;2022-10-23T02:50:05;94251.16;;;11.68;100.00
11345;BME280;5727;42.600;23.028;2022-10-23T02:52:40;94249.25;;;11.77;100.00
11345;BME280;5727;42.600;23.028;2022-10-23T02:55:17;94251.34;;;11.83;100.00
11345;BME280;5727;42.600;23.028;2022-10-23T02:57:51;94254.88;;;11.87;100.00
11345;BME280;5727;42.600;23.028;2022-10-23T03:00:22;94257.63;;;11.91;100.00
11345;BME280;5727;42.600;23.028;2022-10-23T03:02:54;94259.19;;;11.92;100.00
11345;BME280;5727;42.600;23.028;2022-10-23T03:05:25;94261.34;;;11.90;100.00
11345;BME280;5727;42.600;23.028;2022-10-23T03:07:52;94271.41;;;11.88;100.00
11345;BME280;5727;42.600;23.028;2022-10-23T03:10:19;94285.34;;;11.80;100.00
11345;BME280;5727;42.600;23.028;2022-10-23T03:12:46;94277.03;;;11.78;100.00
11345;BME280;5727;42.600;23.028;2022-10-23T03:15:14;94280.09;;;11.80;100.00
11345;BME280;5727;42.600;23.028;2022-10-23T03:17:42;94283.38;;;11.77;100.00
11345;BME280;5727;42.600;23.028;2022-10-23T03:20:10;94286.63;;;11.74;100.00
11345;BME280;5727;42.600;23.028;2022-10-23T03:22:37;94283.41;;;11.68;100.00
11345;BME280;5727;42.600;23.028;2022-10-23T03:25:04;94281.72;;;11.64;100.00
11345;BME280;5727;42.600;23.028;2022-10-23T03:27:32;94285.41;;;11.63;100.00
11345;BME280;5727;42.600;23.028;2022-10-23T03:29:58;94286.06;;;11.60;100.00
11345;BME280;5727;42.600;23.028;2022-10-23T03:32:25;94290.28;;;11.52;100.00
11345;BME280;5727;42.600;23.028;2022-10-23T03:34:53;94290.63;;;11.42;100.00
11345;BME280;5727;42.600;23.028;2022-10-23T03:37:20;94303.16;;;11.37;100.00
11345;BME280;5727;42.600;23.028;2022-10-23T03:39:47;94301.06;;;11.22;100.00
11345;BME280;5727;42.600;23.028;2022-10-23T03:42:13;94309.06;;;11.25;100.00
11345;BME280;5727;42.600;23.028;2022-10-23T03:44:40;94313.06;;;11.23;100.00
11345;BME280;5727;42.600;23.028;2022-10-23T03:47:07;94316.78;;;11.22;100.00
11345;BME280;5727;42.600;23.028;2022-10-23T03:49:36;94324.50;;;11.18;100.00
11345;BME280;5727;42.600;23.028;2022-10-23T03:52:04;94322.84;;;11.14;100.00
11345;BME280;5727;42.600;23.028;2022-10-23T03:54:31;94313.28;;;11.09;100.00
11345;BME280;5727;42.600;23.028;2022-10-23T03:56:58;94314.97;;;11.05;100.00
11345;BME280;5727;42.600;23.028;2022-10-23T03:59:25;94319.63;;;10.99;100.00
11345;BME280;5727;42.600;23.028;2022-10-23T04:01:52;94322.41;;;10.94;100.00
11345;BME280;5727;42.600;23.028;2022-10-23T04:04:19;94332.59;;;10.87;100.00
11345;BME280;5727;42.600;23.028;2022-10-23T04:06:46;94327.69;;;10.77;100.00
11345;BME280;5727;42.600;23.028;2022-10-23T04:09:14;94323.38;;;10.64;100.00
11345;BME280;5727;42.600;23.028;2022-10-23T04:11:41;94334.31;;;10.66;100.00
11345;BME280;5727;42.600;23.028;2022-10-23T04:14:10;94338.19;;;10.43;100.00
11345;BME280;5727;42.600;23.028;2022-10-23T04:16:36;94330.19;;;10.48;100.00
11345;BME280;5727;42.600;23.028;2022-10-23T04:19:03;94326.19;;;10.51;100.00
11345;BME280;5727;42.600;23.028;2022-10-23T04:21:30;94323.72;;;10.29;100.00
11345;BME280;5727;42.600;23.028;2022-10-23T04:23:56;94332.19;;;10.17;100.00
11345;BME280;5727;42.600;23.028;2022-10-23T04:26:25;94333.09;;;10.21;100.00
11345;BME280;5727;42.600;23.028;2022-10-23T04:28:51;94339.88;;;10.22;100.00
11345;BME280;5727;42.600;23.028;2022-10-23T04:31:18;94330.50;;;10.21;100.00
11345;BME280;5727;42.600;23.028;2022-10-23T04:33:45;94346.97;;;10.22;100.00
11345;BME280;5727;42.600;23.028;2022-10-23T04:36:11;94347.72;;;10.22;100.00
11345;BME280;5727;42.600;23.028;2022-10-23T04:38:38;94354.06;;;10.21;100.00
11345;BME280;5727;42.600;23.028;2022-10-23T04:41:05;94343.91;;;10.20;100.00
11345;BME280;5727;42.600;23.028;2022-10-23T04:43:33;94345.28;;;10.17;100.00
11345;BME280;5727;42.600;23.028;2022-10-23T04:46:00;94344.03;;;10.14;100.00
11345;BME280;5727;42.600;23.028;2022-10-23T04:48:27;94348.00;;;9.95;100.00
11345;BME280;5727;42.600;23.028;2022-10-23T04:50:54;94349.06;;;9.94;100.00
11345;BME280;5727;42.600;23.028;2022-10-23T04:53:22;94345.69;;;10.02;100.00
11345;BME280;5727;42.600;23.028;2022-10-23T04:55:49;94342.28;;;10.01;100.00
11345;BME280;5727;42.600;23.028;2022-10-23T04:58:16;94343.06;;;10.02;100.00
11345;BME280;5727;42.600;23.028;2022-10-23T05:00:44;94358.31;;;10.00;100.00
11345;BME280;5727;42.600;23.028;2022-10-23T05:03:11;94354.59;;;10.01;100.00
11345;BME280;5727;42.600;23.028;2022-10-23T05:05:38;94354.91;;;9.99;100.00
11345;BME280;5727;42.600;23.028;2022-10-23T05:08:04;94362.75;;;9.99;100.00
11345;BME280;5727;42.600;23.028;2022-10-23T05:10:31;94366.78;;;9.97;100.00
11345;BME280;5727;42.600;23.028;2022-10-23T05:12:58;94371.88;;;10.02;100.00
11345;BME280;5727;42.600;23.028;2022-10-23T05:15:25;94361.22;;;9.98;100.00
11345;BME280;5727;42.600;23.028;2022-10-23T05:17:55;94366.78;;;10.05;100.00
11345;BME280;5727;42.600;23.028;2022-10-23T05:20:28;94377.88;;;10.02;100.00
11345;BME280;5727;42.600;23.028;2022-10-23T05:22:56;94384.00;;;9.98;100.00
11345;BME280;5727;42.600;23.028;2022-10-23T05:25:25;94376.63;;;10.00;100.00
11345;BME280;5727;42.600;23.028;2022-10-23T05:27:52;94385.88;;;10.06;100.00
11345;BME280;5727;42.600;23.028;2022-10-23T05:30:19;94389.56;;;10.05;100.00
11345;BME280;5727;42.600;23.028;2022-10-23T05:32:46;94386.47;;;10.03;100.00
11345;BME280;5727;42.600;23.028;2022-10-23T05:35:18;94388.63;;;10.01;100.00
11345;BME280;5727;42.600;23.028;2022-10-23T05:37:49;94399.88;;;10.01;100.00
11345;BME280;5727;42.600;23.028;2022-10-23T05:40:17;94393.28;;;10.04;100.00
11345;BME280;5727;42.600;23.028;2022-10-23T05:42:43;94400.97;;;10.09;100.00
11345;BME280;5727;42.600;23.028;2022-10-23T05:45:10;94406.41;;;10.12;100.00
11345;BME280;5727;42.600;23.028;2022-10-23T05:47:37;94404.59;;;10.22;100.00
11345;BME280;5727;42.600;23.028;2022-10-23T05:50:04;94410.75;;;10.26;100.00
11345;BME280;5727;42.600;23.028;2022-10-23T05:52:32;94407.34;;;10.34;100.00
11345;BME280;5727;42.600;23.028;2022-10-23T05:54:59;94418.91;;;10.41;100.00
11345;BME280;5727;42.600;23.028;2022-10-23T05:57:26;94415.09;;;10.47;100.00
11345;BME280;5727;42.600;23.028;2022-10-23T05:59:53;94421.13;;;10.56;100.00
11345;BME280;5727;42.600;23.028;2022-10-23T06:02:19;94423.59;;;10.61;100.00
11345;BME280;5727;42.600;23.028;2022-10-23T06:04:46;94435.00;;;10.65;100.00
11345;BME280;5727;42.600;23.028;2022-10-23T06:07:13;94435.47;;;10.67;100.00
11345;BME280;5727;42.600;23.028;2022-10-23T06:09:41;94441.47;;;10.76;100.00
11345;BME280;5727;42.600;23.028;2022-10-23T06:12:10;94438.53;;;10.86;100.00
11345;BME280;5727;42.600;23.028;2022-10-23T06:14:37;94437.91;;;10.98;100.00
11345;BME280;5727;42.600;23.028;2022-10-23T06:17:04;94439.47;;;11.07;100.00
11345;BME280;5727;42.600;23.028;2022-10-23T06:19:31;94448.09;;;11.17;100.00
11345;BME280;5727;42.600;23.028;2022-10-23T06:21:57;94456.28;;;11.24;100.00
11345;BME280;5727;42.600;23.028;2022-10-23T06:24:24;94460.88;;;11.27;100.00
11345;BME280;5727;42.600;23.028;2022-10-23T06:26:52;94463.50;;;11.27;100.00
11345;BME280;5727;42.600;23.028;2022-10-23T06:29:19;94461.63;;;11.36;100.00
11345;BME280;5727;42.600;23.028;2022-10-23T06:31:46;94458.84;;;11.49;100.00
11345;BME280;5727;42.600;23.028;2022-10-23T06:34:13;94459.59;;;11.58;100.00
11345;BME280;5727;42.600;23.028;2022-10-23T06:36:40;94466.22;;;11.73;100.00
11345;BME280;5727;42.600;23.028;2022-10-23T06:39:07;94468.81;;;11.81;100.00
11345;BME280;5727;42.600;23.028;2022-10-23T06:41:34;94470.16;;;11.96;100.00
11345;BME280;5727;42.600;23.028;2022-10-23T06:44:04;94477.25;;;11.95;100.00
11345;BME280;5727;42.600;23.028;2022-10-23T06:46:33;94477.06;;;12.09;100.00
11345;BME280;5727;42.600;23.028;2022-10-23T06:49:00;94479.59;;;12.26;100.00
11345;BME280;5727;42.600;23.028;2022-10-23T06:51:27;94486.81;;;12.38;100.00
11345;BME280;5727;42.600;23.028;2022-10-23T06:53:54;94481.06;;;12.44;100.00
11345;BME280;5727;42.600;23.028;2022-10-23T06:56:21;94488.72;;;12.58;100.00
11345;BME280;5727;42.600;23.028;2022-10-23T06:58:49;94489.56;;;12.70;100.00
11345;BME280;5727;42.600;23.028;2022-10-23T07:01:17;94491.44;;;12.91;100.00
11345;BME280;5727;42.600;23.028;2022-10-23T07:03:44;94492.25;;;13.12;100.00
11345;BME280;5727;42.600;23.028;2022-10-23T07:06:13;94487.75;;;13.33;100.00
11345;BME280;5727;42.600;23.028;2022-10-23T07:08:40;94491.84;;;13.22;100.00
11345;BME280;5727;42.600;23.028;2022-10-23T07:11:08;94476.06;;;13.22;100.00
11345;BME280;5727;42.600;23.028;2022-10-23T07:13:36;94490.63;;;13.40;100.00
11345;BME280;5727;42.600;23.028;2022-10-23T07:16:11;94492.00;;;13.58;100.00
11345;BME280;5727;42.600;23.028;2022-10-23T07:18:39;94491.84;;;13.75;100.00
11345;BME280;5727;42.600;23.028;2022-10-23T07:21:06;94495.06;;;13.93;100.00
11345;BME280;5727;42.600;23.028;2022-10-23T07:23:33;94479.81;;;14.10;100.00
11345;BME280;5727;42.600;23.028;2022-10-23T07:26:08;94487.97;;;14.29;100.00
11345;BME280;5727;42.600;23.028;2022-10-23T07:28:35;94482.38;;;14.43;100.00
11345;BME280;5727;42.600;23.028;2022-10-23T07:31:03;94473.25;;;14.64;100.00
11345;BME280;5727;42.600;23.028;2022-10-23T07:33:30;94482.91;;;14.85;100.00
11345;BME280;5727;42.600;23.028;2022-10-23T07:35:58;94483.09;;;15.04;100.00
11345;BME280;5727;42.600;23.028;2022-10-23T07:38:25;94478.06;;;15.26;99.25
11345;BME280;5727;42.600;23.028;2022-10-23T07:40:52;94484.38;;;15.37;96.68
11345;BME280;5727;42.600;23.028;2022-10-23T07:43:19;94483.69;;;15.52;94.91
11345;BME280;5727;42.600;23.028;2022-10-23T07:45:47;94485.81;;;15.75;93.46
11345;BME280;5727;42.600;23.028;2022-10-23T07:48:14;94490.25;;;15.86;91.85
11345;BME280;5727;42.600;23.028;2022-10-23T07:50:41;94490.59;;;16.00;91.22
11345;BME280;5727;42.600;23.028;2022-10-23T07:53:14;94482.94;;;16.11;90.65
11345;BME280;5727;42.600;23.028;2022-10-23T07:55:42;94480.66;;;16.25;89.77
11345;BME280;5727;42.600;23.028;2022-10-23T07:58:08;94479.78;;;16.36;90.23
11345;BME280;5727;42.600;23.028;2022-10-23T08:00:38;94478.25;;;16.51;88.18
11345;BME280;5727;42.600;23.028;2022-10-23T08:03:05;94476.13;;;16.57;88.67
11345;BME280;5727;42.600;23.028;2022-10-23T08:05:32;94468.34;;;16.64;89.36
11345;BME280;5727;42.600;23.028;2022-10-23T08:07:59;94473.44;;;16.72;90.05
11345;BME280;5727;42.600;23.028;2022-10-23T08:10:27;94472.44;;;16.77;90.15
11345;BME280;5727;42.600;23.028;2022-10-23T08:12:54;94470.22;;;16.79;89.48
11345;BME280;5727;42.600;23.028;2022-10-23T08:15:20;94473.78;;;16.86;89.54
11345;BME280;5727;42.600;23.028;2022-10-23T08:17:47;94472.41;;;16.92;89.59
11345;BME280;5727;42.600;23.028;2022-10-23T08:20:14;94470.22;;;16.98;89.60
11345;BME280;5727;42.600;23.028;2022-10-23T08:22:40;94470.78;;;17.07;88.67
11345;BME280;5727;42.600;23.028;2022-10-23T08:25:08;94469.13;;;17.18;89.09
11345;BME280;5727;42.600;23.028;2022-10-23T08:27:37;94458.69;;;17.25;89.40
11345;BME280;5727;42.600;23.028;2022-10-23T08:30:04;94467.75;;;17.24;89.59
11345;BME280;5727;42.600;23.028;2022-10-23T08:32:31;94468.88;;;17.23;89.24
11345;BME280;5727;42.600;23.028;2022-10-23T08:34:58;94469.41;;;17.32;88.38
11345;BME280;5727;42.600;23.028;2022-10-23T08:37:25;94467.31;;;17.41;88.26
11345;BME280;5727;42.600;23.028;2022-10-23T08:39:54;94461.50;;;17.51;88.17
11345;BME280;5727;42.600;23.028;2022-10-23T08:42:23;94470.75;;;17.61;87.71
11345;BME280;5727;42.600;23.028;2022-10-23T08:44:58;94473.88;;;17.66;87.65
11345;BME280;5727;42.600;23.028;2022-10-23T08:47:29;94474.00;;;17.73;87.60
11345;BME280;5727;42.600;23.028;2022-10-23T08:50:01;94474.59;;;17.63;88.66
11345;BME280;5727;42.600;23.028;2022-10-23T08:52:32;94470.47;;;17.66;88.78
11345;BME280;5727;42.600;23.028;2022-10-23T08:55:12;94478.69;;;17.80;88.49
11345;BME280;5727;42.600;23.028;2022-10-23T08:57:44;94467.16;;;17.91;88.49
11345;BME280;5727;42.600;23.028;2022-10-23T09:00:16;94462.09;;;18.05;88.15
11345;BME280;5727;42.600;23.028;2022-10-23T09:02:45;94471.09;;;18.23;87.16
11345;BME280;5727;42.600;23.028;2022-10-23T09:05:16;94465.09;;;18.26;86.37
11345;BME280;5727;42.600;23.028;2022-10-23T09:08:03;94465.03;;;18.23;86.07
11345;BME280;5727;42.600;23.028;2022-10-23T09:10:39;94481.59;;;18.16;85.68
11345;BME280;5727;42.600;23.028;2022-10-23T09:13:21;94473.59;;;18.13;86.04
11345;BME280;5727;42.600;23.028;2022-10-23T09:16:03;94467.91;;;18.14;86.17
11345;BME280;5727;42.600;23.028;2022-10-23T09:18:40;94474.06;;;18.18;85.41
11345;BME280;5727;42.600;23.028;2022-10-23T09:21:08;94473.09;;;18.30;85.94
11345;BME280;5727;42.600;23.028;2022-10-23T09:23:35;94473.00;;;18.46;84.31
11345;BME280;5727;42.600;23.028;2022-10-23T09:26:06;94459.13;;;18.56;83.37
11345;BME280;5727;42.600;23.028;2022-10-23T09:28:44;94457.00;;;18.65;83.22
11345;BME280;5727;42.600;23.028;2022-10-23T09:31:13;94467.00;;;18.75;81.91
11345;BME280;5727;42.600;23.028;2022-10-23T09:33:41;94468.03;;;18.67;82.18
11345;BME280;5727;42.600;23.028;2022-10-23T09:36:17;94469.25;;;18.73;82.00
11345;BME280;5727;42.600;23.028;2022-10-23T09:38:48;94469.72;;;18.78;80.60
11345;BME280;5727;42.600;23.028;2022-10-23T09:41:18;94470.53;;;18.82;81.59
11345;BME280;5727;42.600;23.028;2022-10-23T09:43:46;94467.13;;;18.85;80.47
11345;BME280;5727;42.600;23.028;2022-10-23T09:46:14;94455.09;;;18.91;80.62
11345;BME280;5727;42.600;23.028;2022-10-23T09:48:41;94456.28;;;18.94;79.66
11345;BME280;5727;42.600;23.028;2022-10-23T09:51:16;94458.44;;;18.88;78.96
11345;BME280;5727;42.600;23.028;2022-10-23T09:53:48;94458.53;;;18.92;79.44
11345;BME280;5727;42.600;23.028;2022-10-23T09:56:24;94457.53;;;19.03;79.11
11345;BME280;5727;42.600;23.028;2022-10-23T09:58:53;94446.22;;;19.10;79.20
11345;BME280;5727;42.600;23.028;2022-10-23T10:01:23;94447.50;;;19.23;79.44
11345;BME280;5727;42.600;23.028;2022-10-23T10:03:51;94445.81;;;19.34;78.32
11345;BME280;5727;42.600;23.028;2022-10-23T10:06:22;94439.41;;;19.42;78.51
11345;BME280;5727;42.600;23.028;2022-10-23T10:08:51;94441.81;;;19.51;76.54
11345;BME280;5727;42.600;23.028;2022-10-23T10:11:21;94439.28;;;19.61;74.78
11345;BME280;5727;42.600;23.028;2022-10-23T10:13:58;94442.81;;;19.76;73.87
11345;BME280;5727;42.600;23.028;2022-10-23T10:16:35;94441.47;;;19.92;75.04
11345;BME280;5727;42.600;23.028;2022-10-23T10:19:12;94444.63;;;20.05;73.47
11345;BME280;5727;42.600;23.028;2022-10-23T10:21:45;94446.97;;;20.14;72.12
11345;BME280;5727;42.600;23.028;2022-10-23T10:24:19;94438.59;;;20.12;71.28
11345;BME280;5727;42.600;23.028;2022-10-23T10:26:52;94437.34;;;19.98;70.12
11345;BME280;5727;42.600;23.028;2022-10-23T10:29:35;94434.72;;;20.02;68.46
11345;BME280;5727;42.600;23.028;2022-10-23T10:32:15;94433.66;;;20.14;66.15
11345;BME280;5727;42.600;23.028;2022-10-23T10:34:50;94438.53;;;20.04;62.55
11345;BME280;5727;42.600;23.028;2022-10-23T10:37:27;94424.03;;;19.98;63.67
11345;BME280;5727;42.600;23.028;2022-10-23T10:39:59;94417.28;;;20.08;63.06
11345;BME280;5727;42.600;23.028;2022-10-23T10:42:50;94416.16;;;20.05;64.12
11345;BME280;5727;42.600;23.028;2022-10-23T10:45:26;94416.84;;;20.02;63.79
11345;BME280;5727;42.600;23.028;2022-10-23T10:48:08;94413.53;;;20.13;60.90
11345;BME280;5727;42.600;23.028;2022-10-23T10:50:46;94413.53;;;20.13;60.94
11345;BME280;5727;42.600;23.028;2022-10-23T10:53:21;94408.69;;;20.22;61.01
11345;BME280;5727;42.600;23.028;2022-10-23T10:55:52;94394.28;;;20.26;62.91
11345;BME280;5727;42.600;23.028;2022-10-23T10:58:23;94395.13;;;20.37;63.26
11345;BME280;5727;42.600;23.028;2022-10-23T11:00:55;94390.97;;;20.43;61.55
11345;BME280;5727;42.600;23.028;2022-10-23T11:03:33;94396.25;;;20.36;60.17
11345;BME280;5727;42.600;23.028;2022-10-23T11:06:03;94399.34;;;20.42;60.43
11345;BME280;5727;42.600;23.028;2022-10-23T11:08:34;94397.91;;;20.58;60.96
11345;BME280;5727;42.600;23.028;2022-10-23T11:11:06;94390.72;;;20.66;59.84
11345;BME280;5727;42.600;23.028;2022-10-23T11:13:36;94376.72;;;20.76;59.73
11345;BME280;5727;42.600;23.028;2022-10-23T11:16:09;94387.78;;;20.85;59.98
11345;BME280;5727;42.600;23.028;2022-10-23T11:18:42;94383.22;;;20.82;58.39
11345;BME280;5727;42.600;23.028;2022-10-23T11:21:21;94374.09;;;20.83;58.58
11345;BME280;5727;42.600;23.028;2022-10-23T11:24:25;94372.97;;;20.84;56.04
11345;BME280;5727;42.600;23.028;2022-10-23T11:30:03;94372.13;;;20.73;59.26
11345;BME280;5727;42.600;23.028;2022-10-23T11:32:51;94358.41;;;20.71;58.28
11345;BME280;5727;42.600;23.028;2022-10-23T11:35:32;94368.72;;;20.76;58.70
11345;BME280;5727;42.600;23.028;2022-10-23T11:38:15;94355.44;;;20.83;57.25
11345;BME280;5727;42.600;23.028;2022-10-23T11:40:44;94349.41;;;20.93;57.30
11345;BME280;5727;42.600;23.028;2022-10-23T11:43:12;94352.69;;;20.65;58.13
11345;BME280;5727;42.600;23.028;2022-10-23T11:45:39;94351.38;;;20.38;59.53
11345;BME280;5727;42.600;23.028;2022-10-23T11:48:21;94353.31;;;20.38;59.17
11345;BME280;5727;42.600;23.028;2022-10-23T11:50:51;94351.06;;;20.47;58.37
11345;BME280;5727;42.600;23.028;2022-10-23T11:53:36;94344.63;;;20.48;56.60
11345;BME280;5727;42.600;23.028;2022-10-23T11:56:19;94342.78;;;20.62;54.38
11345;BME280;5727;42.600;23.028;2022-10-23T11:58:49;94341.28;;;20.65;53.38
11345;BME280;5727;42.600;23.028;2022-10-23T12:01:32;94334.09;;;20.72;54.07
11345;BME280;5727;42.600;23.028;2022-10-23T12:04:04;94329.56;;;20.83;53.22
11345;BME280;5727;42.600;23.028;2022-10-23T12:06:43;94324.31;;;20.98;54.11
11345;BME280;5727;42.600;23.028;2022-10-23T12:09:26;94323.63;;;21.11;55.37
11345;BME280;5727;42.600;23.028;2022-10-23T12:12:13;94324.50;;;21.61;52.48
11345;BME280;5727;42.600;23.028;2022-10-23T12:14:41;94313.81;;;22.24;48.98
11345;BME280;5727;42.600;23.028;2022-10-23T12:17:33;94314.56;;;22.39;49.31
11345;BME280;5727;42.600;23.028;2022-10-23T12:20:17;94316.09;;;22.26;47.04
11345;BME280;5727;42.600;23.028;2022-10-23T12:23:05;94315.34;;;22.22;47.80
11345;BME280;5727;42.600;23.028;2022-10-23T12:25:44;94310.78;;;22.05;49.04
11345;BME280;5727;42.600;23.028;2022-10-23T12:28:28;94315.22;;;22.82;45.69
11345;BME280;5727;42.600;23.028;2022-10-23T12:31:03;94314.63;;;23.91;41.38
11345;BME280;5727;42.600;23.028;2022-10-23T12:33:38;94304.41;;;25.27;38.62
11345;BME280;5727;42.600;23.028;2022-10-23T12:36:19;94316.91;;;25.68;36.38
11345;BME280;5727;42.600;23.028;2022-10-23T12:38:49;94307.53;;;25.79;36.42
11345;BME280;5727;42.600;23.028;2022-10-23T12:41:20;94319.63;;;26.37;34.56
11345;BME280;5727;42.600;23.028;2022-10-23T12:43:50;94314.53;;;25.96;34.93
11345;BME280;5727;42.600;23.028;2022-10-23T12:46:30;94305.91;;;26.32;34.23
11345;BME280;5727;42.600;23.028;2022-10-23T12:48:59;94315.78;;;26.15;34.43
11345;BME280;5727;42.600;23.028;2022-10-23T12:51:30;94304.66;;;26.36;34.64
11345;BME280;5727;42.600;23.028;2022-10-23T12:53:58;94310.75;;;26.83;33.79
11345;BME280;5727;42.600;23.028;2022-10-23T12:56:27;94302.03;;;27.34;33.03
11345;BME280;5727;42.600;23.028;2022-10-23T12:58:59;94307.16;;;28.13;32.06
11345;BME280;5727;42.600;23.028;2022-10-23T13:01:28;94301.63;;;28.03;31.27
11345;BME280;5727;42.600;23.028;2022-10-23T13:04:10;94297.06;;;28.77;30.57
11345;BME280;5727;42.600;23.028;2022-10-23T13:06:39;94297.38;;;28.51;30.25
11345;BME280;5727;42.600;23.028;2022-10-23T13:09:17;94300.94;;;28.76;30.56
11345;BME280;5727;42.600;23.028;2022-10-23T13:11:46;94302.19;;;29.01;29.53
11345;BME280;5727;42.600;23.028;2022-10-23T13:14:13;94302.09;;;29.58;28.41
11345;BME280;5727;42.600;23.028;2022-10-23T13:16:40;94300.44;;;29.48;28.68
11345;BME280;5727;42.600;23.028;2022-10-23T13:19:21;94300.97;;;29.18;28.65
11345;BME280;5727;42.600;23.028;2022-10-23T13:21:48;94299.03;;;29.43;28.69